Flight Track Log - Related Links

Times and Time Zones

All times are in EDT time to prevent confusion due to time zone crossing. See the PDT4166 flight status page for this flight to view local times or setup timezone preferences in your user account.

Time Position Orientation Groundspeed Altitude Reporting Facility
EDT Latitude Longitude Course Direction KTS MPH feet Rate Location/Type
Fri 07:27:27 PM 43.0936 -76.1736 246° West 142 163 3,200  Level Boston Center
Fri 07:28:27 PM 43.0675 -76.2119 227° Southwest 136 157 4,600 1,286 Climbing Boston Center
Fri 07:29:00 PM 42.9322 -76.2849 226° Southwest  Level FlightAware Approximate
Fri 07:30:00 PM 42.8816 -76.3558 226° Southwest  Level FlightAware Approximate
Fri 07:30:43 PM 43.0017 -76.3025 225° Southwest 156 180 7,400  Level New York Center
Fri 07:31:00 PM 42.8378 -76.4288 216° Southwest  Level FlightAware Approximate
Fri 07:31:44 PM 42.9747 -76.3428 228° Southwest 156 180 8,600  Level New York Center
Fri 07:32:45 PM 42.9417 -76.3853 223° Southwest 156 180 9,900 712 Climbing New York Center
Fri 07:33:42 PM 42.8983 -76.4239 213° Southwest 173 199 10,000 504 Climbing New York Center
Fri 07:34:44 PM 42.8444 -76.4589 205° Southwest 203 234 10,900 950 Climbing New York Center
Fri 07:35:42 PM 42.7917 -76.4344 161° South 194 223 11,900 1,000 Climbing New York Center
Fri 07:36:44 PM 42.7389 -76.4072 159° South 194 223 12,900 984 Climbing New York Center
Fri 07:37:44 PM 42.6883 -76.3775 157° South 199 229 13,900 1,008 Climbing New York Center
Fri 07:38:43 PM 42.6372 -76.3561 163° South 199 229 14,900 1,008 Climbing New York Center
Fri 07:39:43 PM 42.5864 -76.3292 159° South 199 229 15,900 545 Climbing New York Center
Fri 07:40:44 PM 42.5314 -76.3019 160° South 204 235 16,000 50 Climbing New York Center
Fri 07:41:42 PM 42.4728 -76.2689 157° South 210 242 16,000  Level New York Center
Fri 07:42:43 PM 42.4094 -76.2411 162° South 227 261 16,000  Level New York Center
Fri 07:43:44 PM 42.3444 -76.2078 159° South 245 282 16,000  Level New York Center
Fri 07:44:44 PM 42.2850 -76.1831 163° South 245 282 16,000  Level New York Center
Fri 07:45:44 PM 42.2219 -76.1528 160° South 245 282 16,000 -356 Level New York Center
Fri 07:46:42 PM 42.1528 -76.1164 159° South 250 288 15,300 -814 Descending New York Center
Fri 07:47:42 PM 42.0814 -76.0825 161° South 264 304 14,400 -927 Descending New York Center
Fri 07:48:45 PM 41.9997 -76.0453 161° South 274 315 13,400 -900 Descending New York Center
Fri 07:49:42 PM 41.9367 -76.0153 161° South 279 321 12,600 -872 Descending New York Center
Fri 07:50:42 PM 41.8653 -75.9817 161° South 279 321 11,700 -850 Descending New York Center
Fri 07:51:42 PM 41.7878 -75.9422 159° South 274 315 10,900 -793 Descending New York Center
Fri 07:52:43 PM 41.7167 -75.9061 159° South 274 315 10,100 -793 Descending New York Center
Fri 07:53:43 PM 41.6494 -75.8706 158° South 274 315 9,300 -694 Descending New York Center
Fri 07:54:44 PM 41.5861 -75.8381 159° South 274 315 8,700 -655 Descending New York Center
Fri 07:55:42 PM 41.5086 -75.8017 161° South 263 303 8,000 -353 Descending New York Center
Fri 07:56:43 PM 41.4411 -75.7717 162° South 263 303 8,000  Level New York Center
Fri 07:57:44 PM 41.3775 -75.7475 164° South 258 297 8,000  Level New York Center
Fri 07:58:43 PM 41.3142 -75.7208 162° South 253 291 8,000  Level New York Center
Fri 07:59:43 PM 41.2528 -75.6914 160° South 242 278 8,000  Level New York Center
Fri 08:00:43 PM 41.1897 -75.6594 159° South 242 278 8,000  Level New York Center
Fri 08:02:00 PM 41.1153 -75.6235 160° South  Level FlightAware Approximate
Fri 08:06:46 PM 40.8000 -75.4833 217° Southwest 244 281 8,000  Level Philadelphia TRACON
Fri 08:07:46 PM 40.7333 -75.4667 169° South 250 288 7,400 -700 Descending Philadelphia TRACON
Fri 08:08:46 PM 40.6667 -75.4667 180° South 262 302 6,600 -750 Descending Philadelphia TRACON
Fri 08:09:00 PM 40.7043 -75.4500 180° South  Level FlightAware Approximate
Fri 08:09:46 PM 40.5833 -75.4667 180° South 265 305 5,900  Level Philadelphia TRACON
Fri 08:10:00 PM 40.6468 -75.4667 180° South  Level FlightAware Approximate
Fri 08:10:46 PM 40.5167 -75.4500 169° South 261 300 5,200  Level Philadelphia TRACON
Fri 08:11:00 PM 40.5881 -75.4786 217° Southwest  Level FlightAware Approximate
Fri 08:11:46 PM 40.4500 -75.4333 169° South 252 290 5,000  Level Philadelphia TRACON
Fri 08:12:46 PM 40.3833 -75.4167 169° South 238 274 5,000  Level Philadelphia TRACON
Fri 08:13:46 PM 40.3167 -75.4000 169° South 237 273 5,000 -350 Level Philadelphia TRACON
Fri 08:14:46 PM 40.2500 -75.3833 169° South 247 284 4,300 -500 Descending Philadelphia TRACON
Fri 08:15:46 PM 40.1833 -75.3667 169° South 247 284 4,000 -500 Descending Philadelphia TRACON
Fri 08:16:46 PM 40.1333 -75.3333 153° Southeast 234 269 3,300 -500 Descending Philadelphia TRACON
Fri 08:17:46 PM 40.1000 -75.2833 131° Southeast 208 239 3,000 -150 Descending Philadelphia TRACON
Fri 08:18:46 PM 40.0667 -75.2167 123° Southeast 210 242 3,000  Level Philadelphia TRACON
Fri 08:19:46 PM 40.0333 -75.1500 123° Southeast 208 239 3,000  Level Philadelphia TRACON
Fri 08:20:46 PM 40.0167 -75.0833 108° East 183 211 3,000 -250 Level Philadelphia TRACON
Fri 08:21:46 PM 39.9833 -75.0667 159° South 170 196 2,500 -496 Descending Philadelphia TRACON
Fri 08:22:47 PM 39.9333 -75.0833 194° South 188 216 2,000 -545 Descending Philadelphia TRACON
Fri 08:23:47 PM 39.9000 -75.1167 217° Southwest 152 175 1,400 -600 Descending Philadelphia TRACON
Fri 08:24:47 PM 39.8833 -75.1667 247° West 108 124 800 -600 Descending Philadelphia TRACON
Fri 08:25:47 PM 39.8833 -75.2000 270° West 111 128 200 -600 Descending Philadelphia TRACON

Login

Don't have an account? Register now (free) for customized features, flight alerts, and more!